sensor_id;sensor_type;location;lat;lon;timestamp;temperature;humidity
53053;DHT22;38934;52.690;6.184;2023-11-19T00:00:17;11.20;99.90
53053;DHT22;38934;52.690;6.184;2023-11-19T00:02:42;11.60;99.90
53053;DHT22;38934;52.690;6.184;2023-11-19T00:05:09;11.20;99.90
53053;DHT22;38934;52.690;6.184;2023-11-19T00:07:37;11.60;99.90
53053;DHT22;38934;52.690;6.184;2023-11-19T00:10:10;11.40;99.90
53053;DHT22;38934;52.690;6.184;2023-11-19T00:12:42;11.50;99.90
53053;DHT22;38934;52.690;6.184;2023-11-19T00:15:09;11.40;99.90
53053;DHT22;38934;52.690;6.184;2023-11-19T00:17:43;11.30;99.90
53053;DHT22;38934;52.690;6.184;2023-11-19T00:20:11;11.50;99.90
53053;DHT22;38934;52.690;6.184;2023-11-19T00:22:36;11.70;99.90
53053;DHT22;38934;52.690;6.184;2023-11-19T00:25:02;11.30;99.90
53053;DHT22;38934;52.690;6.184;2023-11-19T00:27:29;11.60;99.90
53053;DHT22;38934;52.690;6.184;2023-11-19T00:29:54;11.70;99.90
53053;DHT22;38934;52.690;6.184;2023-11-19T00:32:20;11.70;99.90
53053;DHT22;38934;52.690;6.184;2023-11-19T00:34:45;11.40;99.90
53053;DHT22;38934;52.690;6.184;2023-11-19T00:37:13;11.40;99.90
53053;DHT22;38934;52.690;6.184;2023-11-19T00:39:39;11.80;99.90
53053;DHT22;38934;52.690;6.184;2023-11-19T00:42:05;11.40;99.90
53053;DHT22;38934;52.690;6.184;2023-11-19T00:44:31;11.80;99.90
53053;DHT22;38934;52.690;6.184;2023-11-19T00:46:56;11.60;99.90
53053;DHT22;38934;52.690;6.184;2023-11-19T00:49:22;11.40;99.90
53053;DHT22;38934;52.690;6.184;2023-11-19T00:51:48;11.90;99.90
53053;DHT22;38934;52.690;6.184;2023-11-19T00:54:14;11.50;99.90
53053;DHT22;38934;52.690;6.184;2023-11-19T00:56:39;12.00;99.90
53053;DHT22;38934;52.690;6.184;2023-11-19T00:59:05;11.50;99.90
53053;DHT22;38934;52.690;6.184;2023-11-19T01:01:31;11.60;99.90
53053;DHT22;38934;52.690;6.184;2023-11-19T01:03:56;11.50;99.90
53053;DHT22;38934;52.690;6.184;2023-11-19T01:06:31;11.90;99.90
53053;DHT22;38934;52.690;6.184;2023-11-19T01:08:57;11.50;99.90
53053;DHT22;38934;52.690;6.184;2023-11-19T01:11:24;11.60;99.90
53053;DHT22;38934;52.690;6.184;2023-11-19T01:13:50;11.80;99.90
53053;DHT22;38934;52.690;6.184;2023-11-19T01:16:17;11.70;99.90
53053;DHT22;38934;52.690;6.184;2023-11-19T01:18:43;11.80;99.90
53053;DHT22;38934;52.690;6.184;2023-11-19T01:21:08;11.90;99.90
53053;DHT22;38934;52.690;6.184;2023-11-19T01:23:34;11.60;99.90
53053;DHT22;38934;52.690;6.184;2023-11-19T01:26:00;11.40;99.90
53053;DHT22;38934;52.690;6.184;2023-11-19T01:28:26;11.80;99.90
53053;DHT22;38934;52.690;6.184;2023-11-19T01:30:52;11.80;99.90
53053;DHT22;38934;52.690;6.184;2023-11-19T01:33:18;11.50;99.90
53053;DHT22;38934;52.690;6.184;2023-11-19T01:35:44;11.50;99.90
53053;DHT22;38934;52.690;6.184;2023-11-19T01:38:09;11.90;99.90
53053;DHT22;38934;52.690;6.184;2023-11-19T01:40:35;11.70;99.90
53053;DHT22;38934;52.690;6.184;2023-11-19T01:43:03;11.50;99.90
53053;DHT22;38934;52.690;6.184;2023-11-19T01:45:30;11.80;99.90
53053;DHT22;38934;52.690;6.184;2023-11-19T01:47:57;11.70;99.90
53053;DHT22;38934;52.690;6.184;2023-11-19T01:50:23;11.50;99.90
53053;DHT22;38934;52.690;6.184;2023-11-19T01:52:53;11.70;99.90
53053;DHT22;38934;52.690;6.184;2023-11-19T01:55:20;11.40;99.90
53053;DHT22;38934;52.690;6.184;2023-11-19T01:57:48;11.90;99.90
53053;DHT22;38934;52.690;6.184;2023-11-19T02:00:15;11.70;99.90
53053;DHT22;38934;52.690;6.184;2023-11-19T02:02:42;11.30;99.90
53053;DHT22;38934;52.690;6.184;2023-11-19T02:05:10;11.40;99.90
53053;DHT22;38934;52.690;6.184;2023-11-19T02:07:36;11.70;99.90
53053;DHT22;38934;52.690;6.184;2023-11-19T02:10:03;11.60;99.90
53053;DHT22;38934;52.690;6.184;2023-11-19T02:12:31;11.30;99.90
53053;DHT22;38934;52.690;6.184;2023-11-19T02:14:59;11.30;99.90
53053;DHT22;38934;52.690;6.184;2023-11-19T02:17:29;11.60;99.90
53053;DHT22;38934;52.690;6.184;2023-11-19T02:19:57;11.60;99.90
53053;DHT22;38934;52.690;6.184;2023-11-19T02:22:23;11.20;99.90
53053;DHT22;38934;52.690;6.184;2023-11-19T02:24:54;11.40;99.90
53053;DHT22;38934;52.690;6.184;2023-11-19T02:30:06;11.50;99.90
53053;DHT22;38934;52.690;6.184;2023-11-19T02:32:34;11.20;99.90
53053;DHT22;38934;52.690;6.184;2023-11-19T02:35:01;11.20;99.90
53053;DHT22;38934;52.690;6.184;2023-11-19T02:37:27;11.40;99.90
53053;DHT22;38934;52.690;6.184;2023-11-19T02:39:53;11.30;99.90
53053;DHT22;38934;52.690;6.184;2023-11-19T02:42:19;11.40;99.90
53053;DHT22;38934;52.690;6.184;2023-11-19T02:44:45;11.50;99.90
53053;DHT22;38934;52.690;6.184;2023-11-19T02:47:11;11.50;99.90
53053;DHT22;38934;52.690;6.184;2023-11-19T02:49:37;11.20;99.90
53053;DHT22;38934;52.690;6.184;2023-11-19T02:52:03;11.40;99.90
53053;DHT22;38934;52.690;6.184;2023-11-19T02:54:31;11.40;99.90
53053;DHT22;38934;52.690;6.184;2023-11-19T02:57:00;11.40;99.90
53053;DHT22;38934;52.690;6.184;2023-11-19T02:59:27;11.50;99.90
53053;DHT22;38934;52.690;6.184;2023-11-19T03:01:54;11.50;99.90
53053;DHT22;38934;52.690;6.184;2023-11-19T03:04:20;11.20;99.90
53053;DHT22;38934;52.690;6.184;2023-11-19T03:06:46;11.50;99.90
53053;DHT22;38934;52.690;6.184;2023-11-19T03:09:12;11.20;99.90
53053;DHT22;38934;52.690;6.184;2023-11-19T03:11:38;11.30;99.90
53053;DHT22;38934;52.690;6.184;2023-11-19T03:14:04;11.90;99.90
53053;DHT22;38934;52.690;6.184;2023-11-19T03:16:30;11.60;99.90
53053;DHT22;38934;52.690;6.184;2023-11-19T03:18:55;11.40;99.90
53053;DHT22;38934;52.690;6.184;2023-11-19T03:21:31;11.30;99.90
53053;DHT22;38934;52.690;6.184;2023-11-19T03:23:57;11.50;99.90
53053;DHT22;38934;52.690;6.184;2023-11-19T03:26:26;11.60;99.90
53053;DHT22;38934;52.690;6.184;2023-11-19T03:28:53;11.60;99.90
53053;DHT22;38934;52.690;6.184;2023-11-19T03:31:18;11.60;99.90
53053;DHT22;38934;52.690;6.184;2023-11-19T03:33:44;11.60;99.90
53053;DHT22;38934;52.690;6.184;2023-11-19T03:36:10;11.60;99.90
53053;DHT22;38934;52.690;6.184;2023-11-19T03:38:36;11.30;99.90
53053;DHT22;38934;52.690;6.184;2023-11-19T03:41:13;11.40;99.90
53053;DHT22;38934;52.690;6.184;2023-11-19T03:43:39;11.20;99.90
53053;DHT22;38934;52.690;6.184;2023-11-19T03:46:15;11.30;99.90
53053;DHT22;38934;52.690;6.184;2023-11-19T03:48:41;11.20;99.90
53053;DHT22;38934;52.690;6.184;2023-11-19T03:51:06;11.20;99.90
53053;DHT22;38934;52.690;6.184;2023-11-19T03:53:32;11.20;99.90
53053;DHT22;38934;52.690;6.184;2023-11-19T03:55:57;11.40;99.90
53053;DHT22;38934;52.690;6.184;2023-11-19T03:58:24;11.40;99.90
53053;DHT22;38934;52.690;6.184;2023-11-19T04:00:49;11.60;99.90
53053;DHT22;38934;52.690;6.184;2023-11-19T04:03:15;11.30;99.90
53053;DHT22;38934;52.690;6.184;2023-11-19T04:05:41;11.10;99.90
53053;DHT22;38934;52.690;6.184;2023-11-19T04:08:06;11.20;99.90
53053;DHT22;38934;52.690;6.184;2023-11-19T04:10:32;11.00;99.90
53053;DHT22;38934;52.690;6.184;2023-11-19T04:12:57;10.90;99.90
53053;DHT22;38934;52.690;6.184;2023-11-19T04:15:23;11.00;99.90
53053;DHT22;38934;52.690;6.184;2023-11-19T04:17:49;11.00;99.90
53053;DHT22;38934;52.690;6.184;2023-11-19T04:20:15;10.90;99.90
53053;DHT22;38934;52.690;6.184;2023-11-19T04:22:41;10.70;99.90
53053;DHT22;38934;52.690;6.184;2023-11-19T04:25:07;10.70;99.90
53053;DHT22;38934;52.690;6.184;2023-11-19T04:27:32;10.80;99.90
53053;DHT22;38934;52.690;6.184;2023-11-19T04:29:58;10.70;99.90
53053;DHT22;38934;52.690;6.184;2023-11-19T04:32:23;10.60;99.90
53053;DHT22;38934;52.690;6.184;2023-11-19T04:34:50;10.70;99.90
53053;DHT22;38934;52.690;6.184;2023-11-19T04:37:16;10.60;99.90
53053;DHT22;38934;52.690;6.184;2023-11-19T04:39:44;11.10;99.90
53053;DHT22;38934;52.690;6.184;2023-11-19T04:42:10;10.70;99.90
53053;DHT22;38934;52.690;6.184;2023-11-19T04:44:35;10.80;99.90
53053;DHT22;38934;52.690;6.184;2023-11-19T04:47:01;10.80;99.90
53053;DHT22;38934;52.690;6.184;2023-11-19T04:49:27;10.70;99.90
53053;DHT22;38934;52.690;6.184;2023-11-19T04:51:52;10.70;99.90
53053;DHT22;38934;52.690;6.184;2023-11-19T04:54:19;10.90;99.90
53053;DHT22;38934;52.690;6.184;2023-11-19T04:56:45;10.80;99.90
53053;DHT22;38934;52.690;6.184;2023-11-19T04:59:12;11.10;99.90
53053;DHT22;38934;52.690;6.184;2023-11-19T05:01:38;10.80;99.90
53053;DHT22;38934;52.690;6.184;2023-11-19T05:04:03;10.90;99.90
53053;DHT22;38934;52.690;6.184;2023-11-19T05:06:30;10.90;99.90
53053;DHT22;38934;52.690;6.184;2023-11-19T05:08:59;10.90;99.90
53053;DHT22;38934;52.690;6.184;2023-11-19T05:11:33;11.00;99.90
53053;DHT22;38934;52.690;6.184;2023-11-19T05:13:59;10.90;99.90
53053;DHT22;38934;52.690;6.184;2023-11-19T05:16:25;11.10;99.90
53053;DHT22;38934;52.690;6.184;2023-11-19T05:18:51;11.50;99.90
53053;DHT22;38934;52.690;6.184;2023-11-19T05:21:17;11.10;99.90
53053;DHT22;38934;52.690;6.184;2023-11-19T05:23:43;11.10;99.90
53053;DHT22;38934;52.690;6.184;2023-11-19T05:26:08;11.10;99.90
53053;DHT22;38934;52.690;6.184;2023-11-19T05:28:38;11.00;99.90
53053;DHT22;38934;52.690;6.184;2023-11-19T05:31:04;11.00;99.90
53053;DHT22;38934;52.690;6.184;2023-11-19T05:33:31;10.90;99.90
53053;DHT22;38934;52.690;6.184;2023-11-19T05:35:56;10.90;99.90
53053;DHT22;38934;52.690;6.184;2023-11-19T05:38:22;10.90;99.90
53053;DHT22;38934;52.690;6.184;2023-11-19T05:40:48;10.90;99.90
53053;DHT22;38934;52.690;6.184;2023-11-19T05:43:15;10.90;99.90
53053;DHT22;38934;52.690;6.184;2023-11-19T05:45:42;10.90;99.90
53053;DHT22;38934;52.690;6.184;2023-11-19T05:48:08;10.80;99.90
53053;DHT22;38934;52.690;6.184;2023-11-19T05:50:35;10.70;99.90
53053;DHT22;38934;52.690;6.184;2023-11-19T05:53:00;10.80;99.90
53053;DHT22;38934;52.690;6.184;2023-11-19T05:55:26;10.60;99.90
53053;DHT22;38934;52.690;6.184;2023-11-19T05:57:53;10.70;99.90
53053;DHT22;38934;52.690;6.184;2023-11-19T06:00:19;10.70;99.90
53053;DHT22;38934;52.690;6.184;2023-11-19T06:02:45;10.50;99.90
53053;DHT22;38934;52.690;6.184;2023-11-19T06:05:11;10.60;99.90
53053;DHT22;38934;52.690;6.184;2023-11-19T06:07:37;10.50;99.90
53053;DHT22;38934;52.690;6.184;2023-11-19T06:10:04;10.40;99.90
53053;DHT22;38934;52.690;6.184;2023-11-19T06:12:33;10.40;99.90
53053;DHT22;38934;52.690;6.184;2023-11-19T06:15:00;10.50;99.90
53053;DHT22;38934;52.690;6.184;2023-11-19T06:17:26;10.50;99.90
53053;DHT22;38934;52.690;6.184;2023-11-19T06:19:51;10.50;99.90
53053;DHT22;38934;52.690;6.184;2023-11-19T06:22:17;10.50;99.90
53053;DHT22;38934;52.690;6.184;2023-11-19T06:24:43;10.60;99.90
53053;DHT22;38934;52.690;6.184;2023-11-19T06:27:08;10.50;99.90
53053;DHT22;38934;52.690;6.184;2023-11-19T06:29:34;10.60;99.90
53053;DHT22;38934;52.690;6.184;2023-11-19T06:32:00;10.60;99.90
53053;DHT22;38934;52.690;6.184;2023-11-19T06:34:26;10.50;99.90
53053;DHT22;38934;52.690;6.184;2023-11-19T06:36:51;10.60;99.90
53053;DHT22;38934;52.690;6.184;2023-11-19T06:39:18;10.60;99.90
53053;DHT22;38934;52.690;6.184;2023-11-19T06:41:47;10.60;99.90
53053;DHT22;38934;52.690;6.184;2023-11-19T06:44:12;10.60;99.90
53053;DHT22;38934;52.690;6.184;2023-11-19T06:46:39;10.60;99.90
53053;DHT22;38934;52.690;6.184;2023-11-19T06:49:05;10.60;99.90
53053;DHT22;38934;52.690;6.184;2023-11-19T06:51:30;10.60;99.90
53053;DHT22;38934;52.690;6.184;2023-11-19T06:53:56;10.60;99.90
53053;DHT22;38934;52.690;6.184;2023-11-19T06:56:23;10.50;99.90
53053;DHT22;38934;52.690;6.184;2023-11-19T06:58:49;11.30;99.90
53053;DHT22;38934;52.690;6.184;2023-11-19T07:01:18;10.60;99.90
53053;DHT22;38934;52.690;6.184;2023-11-19T07:03:47;10.60;99.90
53053;DHT22;38934;52.690;6.184;2023-11-19T07:06:13;10.60;99.90
53053;DHT22;38934;52.690;6.184;2023-11-19T07:08:41;10.50;99.90
53053;DHT22;38934;52.690;6.184;2023-11-19T07:11:07;10.60;99.90
53053;DHT22;38934;52.690;6.184;2023-11-19T07:13:35;11.10;99.90
53053;DHT22;38934;52.690;6.184;2023-11-19T07:16:01;10.50;99.90
53053;DHT22;38934;52.690;6.184;2023-11-19T07:18:26;10.40;99.90
53053;DHT22;38934;52.690;6.184;2023-11-19T07:20:52;10.50;99.90
53053;DHT22;38934;52.690;6.184;2023-11-19T07:23:18;10.40;99.90
53053;DHT22;38934;52.690;6.184;2023-11-19T07:25:44;10.40;99.90
53053;DHT22;38934;52.690;6.184;2023-11-19T07:28:12;10.30;99.90
53053;DHT22;38934;52.690;6.184;2023-11-19T07:30:38;10.30;99.90
53053;DHT22;38934;52.690;6.184;2023-11-19T07:33:04;10.30;99.90
53053;DHT22;38934;52.690;6.184;2023-11-19T07:35:30;10.30;99.90
53053;DHT22;38934;52.690;6.184;2023-11-19T07:37:56;10.30;99.90
53053;DHT22;38934;52.690;6.184;2023-11-19T07:40:23;10.30;99.90
53053;DHT22;38934;52.690;6.184;2023-11-19T07:42:49;10.30;99.90
53053;DHT22;38934;52.690;6.184;2023-11-19T07:45:15;10.40;99.90
53053;DHT22;38934;52.690;6.184;2023-11-19T07:47:40;10.50;99.90
53053;DHT22;38934;52.690;6.184;2023-11-19T07:50:06;10.40;99.90
53053;DHT22;38934;52.690;6.184;2023-11-19T07:52:32;10.50;99.90
53053;DHT22;38934;52.690;6.184;2023-11-19T07:54:58;10.60;99.90
53053;DHT22;38934;52.690;6.184;2023-11-19T07:57:24;10.60;99.90
53053;DHT22;38934;52.690;6.184;2023-11-19T07:59:50;10.60;99.90
53053;DHT22;38934;52.690;6.184;2023-11-19T08:02:15;10.60;99.90
53053;DHT22;38934;52.690;6.184;2023-11-19T08:04:41;10.70;99.90
53053;DHT22;38934;52.690;6.184;2023-11-19T08:07:10;10.70;99.90
53053;DHT22;38934;52.690;6.184;2023-11-19T08:09:36;10.70;99.90
53053;DHT22;38934;52.690;6.184;2023-11-19T08:12:03;10.80;99.90
53053;DHT22;38934;52.690;6.184;2023-11-19T08:14:29;10.80;99.90
53053;DHT22;38934;52.690;6.184;2023-11-19T08:16:54;10.80;99.90
53053;DHT22;38934;52.690;6.184;2023-11-19T08:19:20;10.80;99.90
53053;DHT22;38934;52.690;6.184;2023-11-19T08:21:46;10.90;99.90
53053;DHT22;38934;52.690;6.184;2023-11-19T08:24:11;10.80;99.90
53053;DHT22;38934;52.690;6.184;2023-11-19T08:26:37;10.80;99.90
53053;DHT22;38934;52.690;6.184;2023-11-19T08:29:02;10.90;99.90
53053;DHT22;38934;52.690;6.184;2023-11-19T08:31:28;10.90;99.90
53053;DHT22;38934;52.690;6.184;2023-11-19T08:33:54;11.00;99.90
53053;DHT22;38934;52.690;6.184;2023-11-19T08:36:20;11.00;99.90
53053;DHT22;38934;52.690;6.184;2023-11-19T08:38:46;11.00;99.90
53053;DHT22;38934;52.690;6.184;2023-11-19T08:41:13;11.10;99.90
53053;DHT22;38934;52.690;6.184;2023-11-19T08:43:39;11.10;99.90
53053;DHT22;38934;52.690;6.184;2023-11-19T08:46:10;11.10;99.90
53053;DHT22;38934;52.690;6.184;2023-11-19T08:48:36;11.20;99.90
53053;DHT22;38934;52.690;6.184;2023-11-19T08:51:01;11.20;99.90
53053;DHT22;38934;52.690;6.184;2023-11-19T08:53:27;11.30;99.90
53053;DHT22;38934;52.690;6.184;2023-11-19T08:55:52;11.30;99.90
53053;DHT22;38934;52.690;6.184;2023-11-19T08:58:18;11.30;99.90
53053;DHT22;38934;52.690;6.184;2023-11-19T09:00:44;11.40;99.90
53053;DHT22;38934;52.690;6.184;2023-11-19T09:03:09;11.40;99.90
53053;DHT22;38934;52.690;6.184;2023-11-19T09:05:35;11.50;99.90
53053;DHT22;38934;52.690;6.184;2023-11-19T09:08:00;11.50;99.90
53053;DHT22;38934;52.690;6.184;2023-11-19T09:10:26;11.50;99.90
53053;DHT22;38934;52.690;6.184;2023-11-19T09:12:52;11.60;99.90
53053;DHT22;38934;52.690;6.184;2023-11-19T09:15:18;11.60;99.90
53053;DHT22;38934;52.690;6.184;2023-11-19T09:17:44;12.30;99.90
53053;DHT22;38934;52.690;6.184;2023-11-19T09:20:11;11.70;99.90
53053;DHT22;38934;52.690;6.184;2023-11-19T09:22:40;11.80;99.90
53053;DHT22;38934;52.690;6.184;2023-11-19T09:25:06;11.90;99.90
53053;DHT22;38934;52.690;6.184;2023-11-19T09:27:31;11.80;99.90
53053;DHT22;38934;52.690;6.184;2023-11-19T09:29:57;12.40;99.90
53053;DHT22;38934;52.690;6.184;2023-11-19T09:32:24;11.80;99.90
53053;DHT22;38934;52.690;6.184;2023-11-19T09:34:50;11.90;99.90
53053;DHT22;38934;52.690;6.184;2023-11-19T09:37:15;11.90;99.90
53053;DHT22;38934;52.690;6.184;2023-11-19T09:39:41;11.90;99.90
53053;DHT22;38934;52.690;6.184;2023-11-19T09:42:09;11.80;99.90
53053;DHT22;38934;52.690;6.184;2023-11-19T09:44:37;11.80;99.90
53053;DHT22;38934;52.690;6.184;2023-11-19T09:47:04;11.80;99.90
53053;DHT22;38934;52.690;6.184;2023-11-19T09:49:31;11.80;99.90
53053;DHT22;38934;52.690;6.184;2023-11-19T09:51:56;11.80;99.90
53053;DHT22;38934;52.690;6.184;2023-11-19T09:54:22;11.80;99.90
53053;DHT22;38934;52.690;6.184;2023-11-19T09:56:48;11.70;99.90
53053;DHT22;38934;52.690;6.184;2023-11-19T09:59:15;11.80;99.90
53053;DHT22;38934;52.690;6.184;2023-11-19T10:01:41;11.70;99.90
53053;DHT22;38934;52.690;6.184;2023-11-19T10:04:08;11.70;99.90
53053;DHT22;38934;52.690;6.184;2023-11-19T10:06:34;11.70;99.90
53053;DHT22;38934;52.690;6.184;2023-11-19T10:09:00;11.70;99.90
53053;DHT22;38934;52.690;6.184;2023-11-19T10:11:26;11.70;99.90
53053;DHT22;38934;52.690;6.184;2023-11-19T10:13:53;11.70;99.90
53053;DHT22;38934;52.690;6.184;2023-11-19T10:16:19;11.70;99.90
53053;DHT22;38934;52.690;6.184;2023-11-19T10:18:46;11.70;99.90
53053;DHT22;38934;52.690;6.184;2023-11-19T10:21:13;11.70;99.90
53053;DHT22;38934;52.690;6.184;2023-11-19T10:23:49;11.70;99.90
53053;DHT22;38934;52.690;6.184;2023-11-19T10:26:16;11.70;99.90
53053;DHT22;38934;52.690;6.184;2023-11-19T10:28:41;11.80;99.90
53053;DHT22;38934;52.690;6.184;2023-11-19T10:31:09;11.80;99.90
53053;DHT22;38934;52.690;6.184;2023-11-19T10:33:35;11.80;99.90
53053;DHT22;38934;52.690;6.184;2023-11-19T10:36:01;11.80;99.90
53053;DHT22;38934;52.690;6.184;2023-11-19T10:38:26;11.90;99.90
53053;DHT22;38934;52.690;6.184;2023-11-19T10:40:53;11.80;99.90
53053;DHT22;38934;52.690;6.184;2023-11-19T10:43:20;11.80;99.90
53053;DHT22;38934;52.690;6.184;2023-11-19T10:45:48;11.90;99.90
53053;DHT22;38934;52.690;6.184;2023-11-19T10:48:14;11.90;99.90
53053;DHT22;38934;52.690;6.184;2023-11-19T10:50:41;11.80;99.90
53053;DHT22;38934;52.690;6.184;2023-11-19T10:53:09;11.80;99.90
53053;DHT22;38934;52.690;6.184;2023-11-19T10:55:38;11.80;99.90
53053;DHT22;38934;52.690;6.184;2023-11-19T10:58:08;12.00;99.90
53053;DHT22;38934;52.690;6.184;2023-11-19T11:03:21;11.70;99.90
53053;DHT22;38934;52.690;6.184;2023-11-19T11:05:52;11.70;99.90
53053;DHT22;38934;52.690;6.184;2023-11-19T11:08:19;11.70;99.90
53053;DHT22;38934;52.690;6.184;2023-11-19T11:10:56;11.60;99.90
53053;DHT22;38934;52.690;6.184;2023-11-19T11:13:24;11.60;99.90
53053;DHT22;38934;52.690;6.184;2023-11-19T11:15:51;11.60;99.90
53053;DHT22;38934;52.690;6.184;2023-11-19T11:18:17;11.60;99.90
53053;DHT22;38934;52.690;6.184;2023-11-19T11:20:44;11.60;99.90
53053;DHT22;38934;52.690;6.184;2023-11-19T11:28:52;11.60;99.90
53053;DHT22;38934;52.690;6.184;2023-11-19T11:31:44;11.50;99.90
53053;DHT22;38934;52.690;6.184;2023-11-19T11:34:39;11.50;99.90
53053;DHT22;38934;52.690;6.184;2023-11-19T11:39:41;11.40;99.90
53053;DHT22;38934;52.690;6.184;2023-11-19T11:45:09;11.40;99.90
53053;DHT22;38934;52.690;6.184;2023-11-19T11:50:18;11.90;99.90
53053;DHT22;38934;52.690;6.184;2023-11-19T11:55:51;11.90;99.90
53053;DHT22;38934;52.690;6.184;2023-11-19T11:58:31;11.60;99.90
53053;DHT22;38934;52.690;6.184;2023-11-19T12:01:01;11.90;99.90
53053;DHT22;38934;52.690;6.184;2023-11-19T12:03:28;11.90;99.90
53053;DHT22;38934;52.690;6.184;2023-11-19T12:05:55;12.10;99.90
53053;DHT22;38934;52.690;6.184;2023-11-19T12:08:25;12.50;99.90
53053;DHT22;38934;52.690;6.184;2023-11-19T12:10:53;12.20;99.90
53053;DHT22;38934;52.690;6.184;2023-11-19T12:13:20;12.20;99.90
53053;DHT22;38934;52.690;6.184;2023-11-19T12:18:24;12.30;99.90
53053;DHT22;38934;52.690;6.184;2023-11-19T12:20:51;12.30;99.90
53053;DHT22;38934;52.690;6.184;2023-11-19T12:23:17;12.20;99.90
53053;DHT22;38934;52.690;6.184;2023-11-19T12:25:43;12.10;99.90
53053;DHT22;38934;52.690;6.184;2023-11-19T12:28:14;12.10;99.90
53053;DHT22;38934;52.690;6.184;2023-11-19T12:30:42;12.30;99.90
53053;DHT22;38934;52.690;6.184;2023-11-19T12:33:09;12.00;99.90
53053;DHT22;38934;52.690;6.184;2023-11-19T12:35:42;11.90;99.90
53053;DHT22;38934;52.690;6.184;2023-11-19T12:38:17;11.80;99.90
53053;DHT22;38934;52.690;6.184;2023-11-19T12:40:43;11.90;99.90
53053;DHT22;38934;52.690;6.184;2023-11-19T12:43:09;11.70;99.90
53053;DHT22;38934;52.690;6.184;2023-11-19T12:45:36;11.80;99.90
53053;DHT22;38934;52.690;6.184;2023-11-19T12:48:05;11.70;99.90
53053;DHT22;38934;52.690;6.184;2023-11-19T12:50:50;11.70;99.90
53053;DHT22;38934;52.690;6.184;2023-11-19T12:53:17;11.70;99.90
53053;DHT22;38934;52.690;6.184;2023-11-19T12:55:43;12.30;99.90
53053;DHT22;38934;52.690;6.184;2023-11-19T12:58:09;11.90;99.90
53053;DHT22;38934;52.690;6.184;2023-11-19T13:00:34;12.30;99.90
53053;DHT22;38934;52.690;6.184;2023-11-19T13:03:00;11.70;99.90
53053;DHT22;38934;52.690;6.184;2023-11-19T13:05:33;11.70;99.90
53053;DHT22;38934;52.690;6.184;2023-11-19T13:07:59;11.70;99.90
53053;DHT22;38934;52.690;6.184;2023-11-19T13:10:28;11.60;99.90
53053;DHT22;38934;52.690;6.184;2023-11-19T13:13:08;11.70;99.90
53053;DHT22;38934;52.690;6.184;2023-11-19T13:15:34;11.60;99.90
53053;DHT22;38934;52.690;6.184;2023-11-19T13:18:00;11.70;99.90
53053;DHT22;38934;52.690;6.184;2023-11-19T13:20:26;11.60;99.90
53053;DHT22;38934;52.690;6.184;2023-11-19T13:23:03;11.60;99.90
53053;DHT22;38934;52.690;6.184;2023-11-19T13:25:30;11.50;99.90
53053;DHT22;38934;52.690;6.184;2023-11-19T13:27:56;11.60;99.90
53053;DHT22;38934;52.690;6.184;2023-11-19T13:30:23;11.40;99.90
53053;DHT22;38934;52.690;6.184;2023-11-19T13:32:49;11.40;99.90
53053;DHT22;38934;52.690;6.184;2023-11-19T13:35:15;11.40;99.90
53053;DHT22;38934;52.690;6.184;2023-11-19T13:37:42;11.40;99.90
53053;DHT22;38934;52.690;6.184;2023-11-19T13:40:08;11.40;99.90
53053;DHT22;38934;52.690;6.184;2023-11-19T13:42:41;11.30;99.90
53053;DHT22;38934;52.690;6.184;2023-11-19T13:47:36;11.30;99.90
53053;DHT22;38934;52.690;6.184;2023-11-19T13:50:02;11.30;99.90
53053;DHT22;38934;52.690;6.184;2023-11-19T13:52:31;11.30;99.90
53053;DHT22;38934;52.690;6.184;2023-11-19T13:54:57;11.20;99.90
53053;DHT22;38934;52.690;6.184;2023-11-19T13:57:22;11.30;99.90
53053;DHT22;38934;52.690;6.184;2023-11-19T13:59:48;11.20;99.90
53053;DHT22;38934;52.690;6.184;2023-11-19T14:02:13;11.20;99.90
53053;DHT22;38934;52.690;6.184;2023-11-19T14:04:39;11.20;99.90
53053;DHT22;38934;52.690;6.184;2023-11-19T14:07:04;11.20;99.90
53053;DHT22;38934;52.690;6.184;2023-11-19T14:09:30;11.20;99.90
53053;DHT22;38934;52.690;6.184;2023-11-19T14:11:55;11.20;99.90
53053;DHT22;38934;52.690;6.184;2023-11-19T14:14:21;11.20;99.90
53053;DHT22;38934;52.690;6.184;2023-11-19T14:16:47;11.20;99.90
53053;DHT22;38934;52.690;6.184;2023-11-19T14:19:13;11.20;99.90
53053;DHT22;38934;52.690;6.184;2023-11-19T14:21:39;11.30;99.90
53053;DHT22;38934;52.690;6.184;2023-11-19T14:24:05;11.20;99.90
53053;DHT22;38934;52.690;6.184;2023-11-19T14:26:30;11.20;99.90
53053;DHT22;38934;52.690;6.184;2023-11-19T14:28:56;11.70;99.90
53053;DHT22;38934;52.690;6.184;2023-11-19T14:31:22;11.10;99.90
53053;DHT22;38934;52.690;6.184;2023-11-19T14:33:47;11.10;99.90
53053;DHT22;38934;52.690;6.184;2023-11-19T14:36:14;11.10;99.90
53053;DHT22;38934;52.690;6.184;2023-11-19T14:38:39;11.10;99.90
53053;DHT22;38934;52.690;6.184;2023-11-19T14:41:05;11.00;99.90
53053;DHT22;38934;52.690;6.184;2023-11-19T14:43:31;11.00;99.90
53053;DHT22;38934;52.690;6.184;2023-11-19T14:45:57;11.00;99.90
53053;DHT22;38934;52.690;6.184;2023-11-19T14:48:22;11.00;99.90
53053;DHT22;38934;52.690;6.184;2023-11-19T14:50:48;11.00;99.90
53053;DHT22;38934;52.690;6.184;2023-11-19T14:53:15;11.00;99.90
53053;DHT22;38934;52.690;6.184;2023-11-19T14:55:41;11.60;99.90
53053;DHT22;38934;52.690;6.184;2023-11-19T14:58:06;11.30;99.90
53053;DHT22;38934;52.690;6.184;2023-11-19T15:00:33;11.00;99.90
53053;DHT22;38934;52.690;6.184;2023-11-19T15:02:59;11.00;99.90
53053;DHT22;38934;52.690;6.184;2023-11-19T15:05:25;11.20;99.90
53053;DHT22;38934;52.690;6.184;2023-11-19T15:07:50;11.00;99.90
53053;DHT22;38934;52.690;6.184;2023-11-19T15:10:16;11.10;99.90
53053;DHT22;38934;52.690;6.184;2023-11-19T15:12:41;11.00;99.90
53053;DHT22;38934;52.690;6.184;2023-11-19T15:15:10;11.00;99.90
53053;DHT22;38934;52.690;6.184;2023-11-19T15:17:39;11.20;99.90
53053;DHT22;38934;52.690;6.184;2023-11-19T15:20:05;11.00;99.90
53053;DHT22;38934;52.690;6.184;2023-11-19T15:22:31;11.00;99.90
53053;DHT22;38934;52.690;6.184;2023-11-19T15:24:57;10.90;99.90
53053;DHT22;38934;52.690;6.184;2023-11-19T15:27:22;10.90;99.90
53053;DHT22;38934;52.690;6.184;2023-11-19T15:29:48;11.00;99.90
53053;DHT22;38934;52.690;6.184;2023-11-19T15:32:14;10.90;99.90
53053;DHT22;38934;52.690;6.184;2023-11-19T15:34:39;10.90;99.90
53053;DHT22;38934;52.690;6.184;2023-11-19T15:37:07;10.90;99.90
53053;DHT22;38934;52.690;6.184;2023-11-19T15:39:33;10.90;99.90
53053;DHT22;38934;52.690;6.184;2023-11-19T15:42:01;10.90;99.90
53053;DHT22;38934;52.690;6.184;2023-11-19T15:44:27;10.90;99.90
53053;DHT22;38934;52.690;6.184;2023-11-19T15:46:53;10.90;99.90
53053;DHT22;38934;52.690;6.184;2023-11-19T15:49:19;10.80;99.90
53053;DHT22;38934;52.690;6.184;2023-11-19T15:51:45;10.80;99.90
53053;DHT22;38934;52.690;6.184;2023-11-19T15:54:11;10.80;99.90